FW2986 Weather Reports


Display with metric or nautical units.
time (UTC)temp
F
wind
direction
speed
MPH
gust
MPH
rain 1hr
in
rain 24hr
in
rain mn
in
humidity
%
barometer
mb
20200813144632 78 104 0.0 0.0 0.00 0.00 0.00 67 1015.6
20200813143150 75 79 0.0 0.0 0.00 0.00 0.00 71 1015.5
20200813141630 74 79 0.0 0.0 0.00 0.00 0.00 73 1015.6
20200813140207 73 79 0.0 0.0 0.00 0.00 0.00 77 1015.6
20200813134553 70 121 0.0 0.0 0.00 0.00 0.00 84 1015.6
20200813133106 68 76 0.0 0.0 0.00 0.00 0.00 91 1015.7
20200813131626 67 69 0.0 0.0 0.00 0.00 0.00 92 1015.7
20200813130113 66 82 0.0 0.0 0.00 0.00 0.00 94 1015.6
20200813124607 0 0.0 0.0 0.00 0.00 0.00 1015.6
20200813123055 0 0.0 0.0 0.00 0.00 0.00 1015.6
20200813121554 62 76 0.0 0.0 0.00 0.00 0.00 94 1015.6
20200813120027 61 77 0.0 0.0 0.00 0.00 0.00 94 1015.7
20200813114556 60 90 0.0 0.0 0.00 0.00 0.00 94 1015.7
20200813113040 59 90 0.0 0.0 0.00 0.00 0.00 94 1015.6
20200813111529 59 90 0.0 0.0 0.00 0.00 0.00 93 1016.0
20200813110102 0 0.0 0.0 0.00 0.00 0.00 1015.7
20200813104612 0 0.0 0.0 0.00 0.00 0.00 1015.6
20200813103026 59 90 0.0 0.0 0.00 0.00 0.00 93 1015.6
20200813101527 59 90 0.0 0.0 0.00 0.00 0.00 93 1015.6
20200813100037 59 90 0.0 0.0 0.00 0.00 0.00 93 1015.5
20200813094519 59 90 0.0 0.0 0.00 0.00 0.00 93 1015.2
20200813093011 59 90 0.0 0.0 0.00 0.00 0.00 93 1015.1
20200813091534 59 90 0.0 0.0 0.00 0.00 0.00 92 1014.5
20200813090037 60 90 0.0 0.0 0.00 0.00 0.00 92 1014.6
20200813084514 60 90 0.0 0.0 0.00 0.00 0.00 92 1014.6
20200813083010 60 91 0.0 0.0 0.00 0.00 0.00 92 1014.5
20200813081513 60 90 0.0 0.0 0.00 0.00 0.00 92 1014.6
20200813080019 60 90 0.0 0.0 0.00 0.00 0.00 92 1014.5
20200813074527 60 90 0.0 0.0 0.00 0.00 0.00 92 1014.4
20200813073017 61 90 0.0 0.0 0.00 0.00 0.00 92 1014.4
20200813071514 61 90 0.0 0.0 0.00 0.00 0.00 92 1014.0
20200813070012 61 90 0.0 0.0 0.00 0.00 0.00 91 1014.3
20200813064503 62 90 0.0 0.0 0.00 0.00 0.00 91 1014.4
20200813063001 62 90 0.0 0.0 0.00 0.00 0.00 91 1014.5
20200813061558 62 90 0.0 0.0 0.00 0.00 0.00 91 1014.9
20200813060023 62 90 0.0 0.0 0.00 0.00 0.00 91 1014.9
20200813054556 62 90 0.0 0.0 0.00 0.00 0.00 91 1015.0
20200813053016 63 91 0.0 0.0 0.00 0.00 0.00 90 1015.1
20200813051734 63 90 0.0 0.0 0.00 0.00 0.00 90 1015.0
20200813050144 63 90 0.0 0.0 0.00 0.00 0.00 90 1014.9
20200813044737 64 90 0.0 0.0 0.00 0.00 0.00 89 1014.9
20200813043215 64 90 0.0 0.0 0.00 0.00 0.00 89 1014.9
20200813041559 65 90 0.0 0.0 0.00 0.00 0.00 89 1015.0
20200813040145 65 90 0.0 0.0 0.00 0.00 0.00 88 1015.1
20200813034707 66 90 0.0 0.0 0.00 0.00 0.00 88 1015.0
20200813033136 66 90 0.0 0.0 0.00 0.00 0.00 86 1014.9
20200813031621 66 91 0.0 0.0 0.00 0.00 0.00 86 1014.9
20200813030106 66 90 0.0 0.0 0.00 0.00 0.00 85 1014.8
20200813024636 67 91 0.0 0.0 0.00 0.00 0.00 85 1014.6
20200813023152 68 90 0.0 0.0 0.00 0.00 0.00 84 1014.6
20200813021700 68 90 0.0 0.0 0.00 0.00 0.00 83 1014.6
20200813020140 69 90 0.0 0.0 0.00 0.00 0.00 83 1014.3
20200813014639 69 90 0.0 0.0 0.00 0.00 0.00 82 1014.1
20200813013131 70 90 0.0 0.0 0.00 0.00 0.00 80 1014.0
20200813011652 71 90 0.0 0.0 0.00 0.00 0.00 79 1014.0
20200813010106 72 90 0.0 0.0 0.00 0.00 0.00 76 1013.8
20200813004618 73 91 0.0 0.0 0.00 0.00 0.00 75 1013.7
20200813003210 75 91 0.0 0.0 0.00 0.00 0.00 74 1013.6
20200813001617 76 91 0.0 0.0 0.00 0.00 0.00 74 1013.7
20200813000150 77 90 0.0 0.0 0.00 0.00 0.00 69 1014.3
20200812234755 0 0.0 0.0 0.00 0.00 0.00 1014.2
20200812233113 0 0.0 0.0 0.00 0.00 0.00 1014.3
20200812231606 0 0.0 0.0 0.00 0.00 0.00 1014.3
20200812230054 0 0.0 0.0 0.00 0.00 0.00 1014.4
20200812224610 0 0.0 0.0 0.00 0.00 0.00 1014.4
20200812223107 0 0.0 0.0 0.00 0.00 0.00 1014.6
20200812221547 0 0.0 0.0 0.00 0.00 0.00 1014.6
20200812220101 85 99 1.0 0.0 0.00 0.00 0.00 47 1013.8
20200812214537 85 109 0.0 0.0 0.00 0.00 0.00 47 1013.9
20200812213113 85 99 0.0 0.0 0.00 0.00 0.00 46 1014.1
20200812211629 84 98 0.0 0.0 0.00 0.00 0.00 48 1014.0
20200812210036 85 62 0.0 0.0 0.00 0.00 0.00 48 1014.0
20200812204538 85 75 0.0 0.0 0.00 0.00 0.00 47 1014.2
20200812203137 85 23 0.0 0.0 0.00 0.00 0.00 44 1014.4
20200812201637 85 96 0.0 0.0 0.00 0.00 0.00 47 1014.4
20200812200201 85 326 0.0 0.0 0.00 0.00 0.00 46 1014.5
20200812194619 85 97 0.0 0.0 0.00 0.00 0.00 44 1014.5
20200812193127 84 113 0.0 0.0 0.00 0.00 0.00 45 1014.6
20200812191536 84 108 0.0 0.0 0.00 0.00 0.00 45 1015.0
20200812190024 84 89 0.0 0.0 0.00 0.00 0.00 43 1015.1
20200812184515 84 73 0.0 0.0 0.00 0.00 0.00 49 1015.1
20200812183014 83 90 0.0 0.0 0.00 0.00 0.00 47 1015.5
20200812181513 83 117 1.0 0.0 0.00 0.00 0.00 49 1015.6
20200812180049 83 20 0.0 0.0 0.00 0.00 0.00 50 1015.6
20200812174528 83 102 0.0 0.0 0.00 0.00 0.00 48 1015.7
20200812173008 83 100 0.0 0.0 0.00 0.00 0.00 50 1015.7
20200812171513 83 100 0.0 0.0 0.00 0.00 0.00 50 1015.7
20200812170037 82 80 0.0 0.0 0.00 0.00 0.00 50 1015.5
20200812164510 81 187 0.0 0.0 0.00 0.00 0.00 51 1015.6
20200812163022 81 114 0.0 0.0 0.00 0.00 0.00 57 1015.6
20200812161506 80 100 0.0 0.0 0.00 0.00 0.00 56 1015.5
20200812160003 78 53 0.0 0.0 0.00 0.00 0.00 58 1015.3
20200812154741 77 100 0.0 0.0 0.00 0.00 0.00 60 1015.4
20200812153126 77 24 0.0 0.0 0.00 0.00 0.00 62 1015.5
20200812151625 76 136 0.0 0.0 0.00 0.00 0.00 61 1015.4
20200812150132 74 113 1.0 0.0 0.00 0.00 0.00 61 1015.7